sensor_id;sensor_type;location;lat;lon;timestamp;pressure;altitude;pressure_sealevel;temperature;humidity
36304;BME280;22335;49.800;8.596;2023-03-13T00:01:28;99868.16;;;13.24;55.61
36304;BME280;22335;49.800;8.596;2023-03-13T00:08:14;99854.44;;;13.24;55.89
36304;BME280;22335;49.800;8.596;2023-03-13T00:14:58;99869.19;;;13.28;55.64
36304;BME280;22335;49.800;8.596;2023-03-13T00:21:42;99837.53;;;13.30;55.62
36304;BME280;22335;49.800;8.596;2023-03-13T00:28:29;99830.72;;;13.28;55.55
36304;BME280;22335;49.800;8.596;2023-03-13T00:35:15;99823.78;;;13.30;55.49
36304;BME280;22335;49.800;8.596;2023-03-13T00:41:59;99809.75;;;13.32;55.61
36304;BME280;22335;49.800;8.596;2023-03-13T00:48:45;99713.63;;;12.83;55.47
36304;BME280;22335;49.800;8.596;2023-03-13T00:55:29;99790.22;;;13.42;55.73
36304;BME280;22335;49.800;8.596;2023-03-13T01:02:12;99774.88;;;13.41;55.45
36304;BME280;22335;49.800;8.596;2023-03-13T01:08:58;99764.38;;;13.43;55.50
36304;BME280;22335;49.800;8.596;2023-03-13T01:15:42;99747.88;;;13.43;55.73
36304;BME280;22335;49.800;8.596;2023-03-13T01:22:26;99734.16;;;13.43;55.42
36304;BME280;22335;49.800;8.596;2023-03-13T01:29:12;99721.56;;;13.42;55.63
36304;BME280;22335;49.800;8.596;2023-03-13T01:36:00;99701.03;;;13.40;55.60
36304;BME280;22335;49.800;8.596;2023-03-13T01:42:48;99693.28;;;13.42;55.45
36304;BME280;22335;49.800;8.596;2023-03-13T01:49:34;99682.94;;;13.47;54.94
36304;BME280;22335;49.800;8.596;2023-03-13T01:56:28;99674.38;;;13.49;54.82
36304;BME280;22335;49.800;8.596;2023-03-13T02:03:18;99656.44;;;13.51;54.93
36304;BME280;22335;49.800;8.596;2023-03-13T02:10:06;99642.69;;;13.51;55.51
36304;BME280;22335;49.800;8.596;2023-03-13T02:16:51;99644.16;;;13.49;55.46
36304;BME280;22335;49.800;8.596;2023-03-13T02:23:43;99553.66;;;13.00;55.82
36304;BME280;22335;49.800;8.596;2023-03-13T02:30:34;99612.31;;;13.39;56.20
36304;BME280;22335;49.800;8.596;2023-03-13T02:37:18;99559.97;;;13.09;56.32
36304;BME280;22335;49.800;8.596;2023-03-13T02:44:03;99605.38;;;13.33;56.89
36304;BME280;22335;49.800;8.596;2023-03-13T02:50:48;99590.31;;;13.22;58.54
36304;BME280;22335;49.800;8.596;2023-03-13T02:57:32;99566.25;;;13.10;58.96
36304;BME280;22335;49.800;8.596;2023-03-13T03:04:16;99564.34;;;13.02;59.52
36304;BME280;22335;49.800;8.596;2023-03-13T03:11:07;99544.47;;;12.96;60.03
36304;BME280;22335;49.800;8.596;2023-03-13T03:17:51;99538.03;;;12.92;60.23
36304;BME280;22335;49.800;8.596;2023-03-13T03:24:35;99528.66;;;12.93;60.30
36304;BME280;22335;49.800;8.596;2023-03-13T03:31:20;99542.22;;;12.98;60.15
36304;BME280;22335;49.800;8.596;2023-03-13T03:38:03;99542.38;;;13.02;60.20
36304;BME280;22335;49.800;8.596;2023-03-13T03:44:49;99539.47;;;12.98;61.39
36304;BME280;22335;49.800;8.596;2023-03-13T04:06:36;99481.19;;;12.58;64.82
36304;BME280;22335;49.800;8.596;2023-03-13T04:13:21;99505.88;;;12.84;64.35
36304;BME280;22335;49.800;8.596;2023-03-13T04:20:05;99497.00;;;12.87;66.88
36304;BME280;22335;49.800;8.596;2023-03-13T04:26:53;99449.09;;;12.67;67.50
36304;BME280;22335;49.800;8.596;2023-03-13T04:33:36;99497.81;;;13.05;67.92
36304;BME280;22335;49.800;8.596;2023-03-13T04:40:29;99489.56;;;13.13;68.38
36304;BME280;22335;49.800;8.596;2023-03-13T04:47:33;99470.00;;;13.15;68.67
36304;BME280;22335;49.800;8.596;2023-03-13T04:54:36;99446.66;;;12.91;68.78
36304;BME280;22335;49.800;8.596;2023-03-13T05:01:25;99459.66;;;13.21;69.32
36304;BME280;22335;49.800;8.596;2023-03-13T05:08:28;99443.50;;;13.19;69.66
36304;BME280;22335;49.800;8.596;2023-03-13T05:15:24;99457.25;;;13.28;69.41
36304;BME280;22335;49.800;8.596;2023-03-13T05:22:20;99434.63;;;13.31;69.80
36304;BME280;22335;49.800;8.596;2023-03-13T05:29:24;99425.72;;;13.34;70.03
36304;BME280;22335;49.800;8.596;2023-03-13T05:36:25;99405.56;;;13.30;70.59
36304;BME280;22335;49.800;8.596;2023-03-13T05:43:29;99405.03;;;13.36;71.11
36304;BME280;22335;49.800;8.596;2023-03-13T05:50:41;99409.72;;;13.36;71.11
36304;BME280;22335;49.800;8.596;2023-03-13T05:57:44;99427.97;;;13.41;71.25
36304;BME280;22335;49.800;8.596;2023-03-13T06:04:46;99395.84;;;13.24;71.51
36304;BME280;22335;49.800;8.596;2023-03-13T06:11:31;99429.03;;;13.57;71.45
36304;BME280;22335;49.800;8.596;2023-03-13T06:18:17;99393.09;;;13.41;71.13
36304;BME280;22335;49.800;8.596;2023-03-13T06:25:01;99290.63;;;13.02;70.63
36304;BME280;22335;49.800;8.596;2023-03-13T06:31:46;99417.28;;;13.77;71.25
36304;BME280;22335;49.800;8.596;2023-03-13T06:38:30;99363.16;;;13.48;70.91
36304;BME280;22335;49.800;8.596;2023-03-13T06:45:13;99421.16;;;13.85;70.78
36304;BME280;22335;49.800;8.596;2023-03-13T06:51:58;99406.88;;;13.92;71.24
36304;BME280;22335;49.800;8.596;2023-03-13T06:58:41;99404.88;;;14.01;70.64
36304;BME280;22335;49.800;8.596;2023-03-13T07:05:27;99391.09;;;14.10;71.53
36304;BME280;22335;49.800;8.596;2023-03-13T07:12:12;99379.88;;;14.15;71.26
36304;BME280;22335;49.800;8.596;2023-03-13T07:18:58;99404.44;;;14.20;71.24
36304;BME280;22335;49.800;8.596;2023-03-13T07:25:42;99413.28;;;14.25;71.18
36304;BME280;22335;49.800;8.596;2023-03-13T07:32:31;99419.72;;;14.29;70.70
36304;BME280;22335;49.800;8.596;2023-03-13T07:39:14;99422.59;;;14.33;70.90
36304;BME280;22335;49.800;8.596;2023-03-13T07:45:59;99417.84;;;14.42;70.76
36304;BME280;22335;49.800;8.596;2023-03-13T07:52:48;99422.34;;;14.47;70.76
36304;BME280;22335;49.800;8.596;2023-03-13T07:59:31;99437.25;;;14.67;70.44
36304;BME280;22335;49.800;8.596;2023-03-13T08:06:17;99438.16;;;14.92;69.68
36304;BME280;22335;49.800;8.596;2023-03-13T08:13:03;99417.25;;;15.12;69.48
36304;BME280;22335;49.800;8.596;2023-03-13T08:19:46;99438.28;;;15.29;68.94
36304;BME280;22335;49.800;8.596;2023-03-13T08:26:30;99441.53;;;15.43;69.04
36304;BME280;22335;49.800;8.596;2023-03-13T08:33:15;99441.88;;;15.66;68.88
36304;BME280;22335;49.800;8.596;2023-03-13T08:39:59;99438.59;;;15.85;67.85
36304;BME280;22335;49.800;8.596;2023-03-13T08:46:42;99438.84;;;16.04;67.61
36304;BME280;22335;49.800;8.596;2023-03-13T08:53:27;99376.13;;;15.77;67.24
36304;BME280;22335;49.800;8.596;2023-03-13T09:00:12;99439.25;;;16.31;66.81
36304;BME280;22335;49.800;8.596;2023-03-13T09:06:56;99434.16;;;16.45;66.30
36304;BME280;22335;49.800;8.596;2023-03-13T09:13:43;99363.66;;;16.07;65.91
36304;BME280;22335;49.800;8.596;2023-03-13T09:20:27;99431.56;;;16.65;65.58
36304;BME280;22335;49.800;8.596;2023-03-13T09:27:10;99422.66;;;16.71;65.41
36304;BME280;22335;49.800;8.596;2023-03-13T09:33:56;99385.06;;;16.79;65.17
36304;BME280;22335;49.800;8.596;2023-03-13T09:40:40;99363.50;;;16.85;64.92
36304;BME280;22335;49.800;8.596;2023-03-13T09:47:42;99340.59;;;16.84;64.77
36304;BME280;22335;49.800;8.596;2023-03-13T09:54:35;99338.22;;;16.82;64.84
36304;BME280;22335;49.800;8.596;2023-03-13T10:01:26;99335.22;;;17.03;65.08
36304;BME280;22335;49.800;8.596;2023-03-13T10:08:15;99327.34;;;17.53;64.89
36304;BME280;22335;49.800;8.596;2023-03-13T10:15:18;99318.38;;;18.11;64.37
36304;BME280;22335;49.800;8.596;2023-03-13T10:22:27;99321.91;;;18.27;62.83
36304;BME280;22335;49.800;8.596;2023-03-13T10:29:18;99317.97;;;18.09;62.76
36304;BME280;22335;49.800;8.596;2023-03-13T10:36:09;99319.59;;;17.94;62.20
36304;BME280;22335;49.800;8.596;2023-03-13T10:43:00;99320.88;;;17.81;62.22
36304;BME280;22335;49.800;8.596;2023-03-13T10:49:48;99259.16;;;17.41;62.09
36304;BME280;22335;49.800;8.596;2023-03-13T10:56:34;99302.25;;;17.78;62.30
36304;BME280;22335;49.800;8.596;2023-03-13T11:03:19;99287.59;;;17.77;62.39
36304;BME280;22335;49.800;8.596;2023-03-13T11:10:17;99251.72;;;17.81;62.56
36304;BME280;22335;49.800;8.596;2023-03-13T11:17:10;99265.88;;;18.14;62.00
36304;BME280;22335;49.800;8.596;2023-03-13T11:24:06;99201.81;;;18.12;61.37
36304;BME280;22335;49.800;8.596;2023-03-13T11:31:04;99208.38;;;18.47;60.87
36304;BME280;22335;49.800;8.596;2023-03-13T11:37:54;99200.13;;;18.73;60.44
36304;BME280;22335;49.800;8.596;2023-03-13T11:44:47;99192.13;;;18.68;60.46
36304;BME280;22335;49.800;8.596;2023-03-13T11:51:40;99182.91;;;18.83;60.03
36304;BME280;22335;49.800;8.596;2023-03-13T11:58:44;99149.66;;;18.83;60.00
36304;BME280;22335;49.800;8.596;2023-03-13T12:05:48;99150.66;;;18.98;59.50
36304;BME280;22335;49.800;8.596;2023-03-13T12:12:40;99132.16;;;18.79;59.50
36304;BME280;22335;49.800;8.596;2023-03-13T12:19:35;99124.41;;;18.65;59.33
36304;BME280;22335;49.800;8.596;2023-03-13T12:26:29;99096.28;;;18.63;59.66
36304;BME280;22335;49.800;8.596;2023-03-13T12:33:20;99073.63;;;18.81;59.35
36304;BME280;22335;49.800;8.596;2023-03-13T12:40:15;99049.59;;;18.88;58.74
36304;BME280;22335;49.800;8.596;2023-03-13T12:47:07;99063.50;;;19.22;58.33
36304;BME280;22335;49.800;8.596;2023-03-13T12:54:08;99056.38;;;19.21;58.35
36304;BME280;22335;49.800;8.596;2023-03-13T13:01:01;99028.69;;;19.25;58.56
36304;BME280;22335;49.800;8.596;2023-03-13T13:07:52;99007.00;;;19.34;58.17
36304;BME280;22335;49.800;8.596;2023-03-13T13:14:55;98999.53;;;19.38;57.80
36304;BME280;22335;49.800;8.596;2023-03-13T13:21:43;98982.22;;;19.48;57.56
36304;BME280;22335;49.800;8.596;2023-03-13T13:28:34;98960.88;;;19.56;57.71
36304;BME280;22335;49.800;8.596;2023-03-13T13:35:28;98921.91;;;19.79;57.47
36304;BME280;22335;49.800;8.596;2023-03-13T13:42:43;98898.72;;;20.09;56.76
36304;BME280;22335;49.800;8.596;2023-03-13T13:49:31;98877.06;;;20.36;56.70
36304;BME280;22335;49.800;8.596;2023-03-13T13:56:30;98859.75;;;20.57;56.57
36304;BME280;22335;49.800;8.596;2023-03-13T14:03:26;98841.88;;;20.58;55.37
36304;BME280;22335;49.800;8.596;2023-03-13T14:10:24;98825.63;;;20.63;55.23
36304;BME280;22335;49.800;8.596;2023-03-13T14:17:12;98819.69;;;20.72;54.76
36304;BME280;22335;49.800;8.596;2023-03-13T14:23:57;98799.47;;;20.86;54.32
36304;BME280;22335;49.800;8.596;2023-03-13T14:30:44;98787.19;;;20.94;53.95
36304;BME280;22335;49.800;8.596;2023-03-13T14:37:34;98771.69;;;20.96;54.03
36304;BME280;22335;49.800;8.596;2023-03-13T14:44:22;98735.56;;;21.11;53.34
36304;BME280;22335;49.800;8.596;2023-03-13T14:51:09;98704.59;;;21.16;53.23
36304;BME280;22335;49.800;8.596;2023-03-13T14:58:01;98693.88;;;21.22;53.15
36304;BME280;22335;49.800;8.596;2023-03-13T15:04:54;98696.63;;;21.25;52.93
36304;BME280;22335;49.800;8.596;2023-03-13T15:11:41;98688.28;;;21.32;52.40
36304;BME280;22335;49.800;8.596;2023-03-13T15:18:26;98683.91;;;21.31;51.88
36304;BME280;22335;49.800;8.596;2023-03-13T15:25:16;98681.13;;;21.35;51.63
36304;BME280;22335;49.800;8.596;2023-03-13T15:32:01;98673.19;;;21.40;51.25
36304;BME280;22335;49.800;8.596;2023-03-13T15:38:44;98650.53;;;21.46;50.88
36304;BME280;22335;49.800;8.596;2023-03-13T15:45:29;98922.66;;;21.33;47.13
36304;BME280;22335;49.800;8.596;2023-03-13T15:52:14;98830.13;;;18.72;48.65
36304;BME280;22335;49.800;8.596;2023-03-13T15:59:00;98814.81;;;17.84;50.55
36304;BME280;22335;49.800;8.596;2023-03-13T16:05:48;98795.13;;;17.63;51.20
36304;BME280;22335;49.800;8.596;2023-03-13T16:12:32;98742.03;;;17.50;51.95
36304;BME280;22335;49.800;8.596;2023-03-13T16:19:15;98758.81;;;17.38;53.03
36304;BME280;22335;49.800;8.596;2023-03-13T16:26:00;98763.16;;;17.39;53.22
36304;BME280;22335;49.800;8.596;2023-03-13T16:32:44;98657.22;;;17.01;53.77
36304;BME280;22335;49.800;8.596;2023-03-13T16:39:28;98726.50;;;17.42;54.42
36304;BME280;22335;49.800;8.596;2023-03-13T16:46:15;98740.78;;;17.21;55.48
36304;BME280;22335;49.800;8.596;2023-03-13T16:52:59;98746.25;;;17.17;56.30
36304;BME280;22335;49.800;8.596;2023-03-13T16:59:44;98712.94;;;17.33;56.60
36304;BME280;22335;49.800;8.596;2023-03-13T17:06:31;98719.47;;;17.48;56.96
36304;BME280;22335;49.800;8.596;2023-03-13T17:13:16;98697.50;;;17.59;57.18
36304;BME280;22335;49.800;8.596;2023-03-13T17:20:00;98701.13;;;17.36;58.42
36304;BME280;22335;49.800;8.596;2023-03-13T17:26:47;98692.13;;;17.13;59.55
36304;BME280;22335;49.800;8.596;2023-03-13T17:33:31;98684.84;;;17.01;59.94
36304;BME280;22335;49.800;8.596;2023-03-13T17:40:16;98656.44;;;16.77;60.89
36304;BME280;22335;49.800;8.596;2023-03-13T17:47:02;98650.25;;;16.61;62.18
36304;BME280;22335;49.800;8.596;2023-03-13T17:53:47;98657.97;;;16.52;62.99
36304;BME280;22335;49.800;8.596;2023-03-13T18:00:31;98653.31;;;16.33;63.53
36304;BME280;22335;49.800;8.596;2023-03-13T18:07:22;98661.94;;;16.31;64.06
36304;BME280;22335;49.800;8.596;2023-03-13T18:14:06;98653.63;;;16.51;64.13
36304;BME280;22335;49.800;8.596;2023-03-13T18:20:53;98645.09;;;16.59;64.10
36304;BME280;22335;49.800;8.596;2023-03-13T18:27:38;98602.59;;;16.41;63.83
36304;BME280;22335;49.800;8.596;2023-03-13T18:34:22;98633.31;;;16.86;63.63
36304;BME280;22335;49.800;8.596;2023-03-13T18:41:06;98632.78;;;17.03;63.40
36304;BME280;22335;49.800;8.596;2023-03-13T18:47:52;98657.09;;;17.20;62.92
36304;BME280;22335;49.800;8.596;2023-03-13T18:54:35;98671.44;;;17.29;62.79
36304;BME280;22335;49.800;8.596;2023-03-13T19:01:21;98696.09;;;17.42;62.25
36304;BME280;22335;49.800;8.596;2023-03-13T19:08:09;98666.13;;;17.17;62.11
36304;BME280;22335;49.800;8.596;2023-03-13T19:14:56;98702.16;;;17.24;60.97
36304;BME280;22335;49.800;8.596;2023-03-13T19:21:40;98721.34;;;16.91;60.97
36304;BME280;22335;49.800;8.596;2023-03-13T19:28:25;98735.72;;;16.77;60.87
36304;BME280;22335;49.800;8.596;2023-03-13T19:35:08;98735.50;;;16.86;60.79
36304;BME280;22335;49.800;8.596;2023-03-13T19:41:53;98702.91;;;16.95;60.27
36304;BME280;22335;49.800;8.596;2023-03-13T19:48:40;98686.28;;;16.91;60.26
36304;BME280;22335;49.800;8.596;2023-03-13T19:55:23;98704.97;;;16.55;60.73
36304;BME280;22335;49.800;8.596;2023-03-13T20:02:08;98681.44;;;16.19;61.38
36304;BME280;22335;49.800;8.596;2023-03-13T20:08:55;98650.00;;;15.81;62.33
36304;BME280;22335;49.800;8.596;2023-03-13T20:15:40;98556.00;;;15.48;63.39
36304;BME280;22335;49.800;8.596;2023-03-13T20:22:23;98492.22;;;15.26;63.74
36304;BME280;22335;49.800;8.596;2023-03-13T20:29:08;98510.47;;;14.95;64.57
36304;BME280;22335;49.800;8.596;2023-03-13T20:35:55;98497.22;;;14.82;65.07
36304;BME280;22335;49.800;8.596;2023-03-13T20:42:40;98465.44;;;14.84;64.38
36304;BME280;22335;49.800;8.596;2023-03-13T20:49:25;98457.97;;;14.85;63.97
36304;BME280;22335;49.800;8.596;2023-03-13T20:56:09;98458.97;;;14.76;63.69
36304;BME280;22335;49.800;8.596;2023-03-13T21:02:53;98477.91;;;14.78;63.59
36304;BME280;22335;49.800;8.596;2023-03-13T21:09:38;98490.41;;;14.75;63.34
36304;BME280;22335;49.800;8.596;2023-03-13T21:16:22;98478.22;;;14.57;63.61
36304;BME280;22335;49.800;8.596;2023-03-13T21:23:05;98507.69;;;14.41;64.48
36304;BME280;22335;49.800;8.596;2023-03-13T21:29:50;98503.03;;;14.25;65.09
36304;BME280;22335;49.800;8.596;2023-03-13T21:36:34;98518.03;;;14.12;65.71
36304;BME280;22335;49.800;8.596;2023-03-13T21:43:18;98553.94;;;14.03;66.99
36304;BME280;22335;49.800;8.596;2023-03-13T21:50:07;98594.97;;;13.96;67.53
36304;BME280;22335;49.800;8.596;2023-03-13T21:56:52;98568.25;;;13.81;68.00
36304;BME280;22335;49.800;8.596;2023-03-13T22:03:36;98563.69;;;13.85;68.66
36304;BME280;22335;49.800;8.596;2023-03-13T22:10:21;98547.34;;;13.76;69.40
36304;BME280;22335;49.800;8.596;2023-03-13T22:17:04;98562.41;;;13.67;70.38
36304;BME280;22335;49.800;8.596;2023-03-13T22:23:48;98528.00;;;13.57;71.37
36304;BME280;22335;49.800;8.596;2023-03-13T22:30:33;98566.00;;;13.55;71.87
36304;BME280;22335;49.800;8.596;2023-03-13T22:37:16;98574.94;;;13.52;72.54
36304;BME280;22335;49.800;8.596;2023-03-13T22:44:02;98521.53;;;13.09;73.04
36304;BME280;22335;49.800;8.596;2023-03-13T22:50:47;98560.22;;;13.44;73.52
36304;BME280;22335;49.800;8.596;2023-03-13T22:57:39;98533.56;;;13.45;73.31
36304;BME280;22335;49.800;8.596;2023-03-13T23:04:22;98520.88;;;13.40;73.69
36304;BME280;22335;49.800;8.596;2023-03-13T23:11:07;98529.19;;;13.44;73.45
36304;BME280;22335;49.800;8.596;2023-03-13T23:17:51;98563.69;;;13.41;74.08
36304;BME280;22335;49.800;8.596;2023-03-13T23:24:35;98554.53;;;13.37;74.04
36304;BME280;22335;49.800;8.596;2023-03-13T23:31:20;98542.47;;;13.13;74.38
36304;BME280;22335;49.800;8.596;2023-03-13T23:38:04;98620.88;;;13.39;74.37
36304;BME280;22335;49.800;8.596;2023-03-13T23:44:47;98612.41;;;13.44;73.76
36304;BME280;22335;49.800;8.596;2023-03-13T23:51:32;98619.13;;;13.47;73.92
36304;BME280;22335;49.800;8.596;2023-03-13T23:58:15;98635.28;;;13.48;73.96
